KENV/ENV METAR and TAF weather

Enter ICAO airport designator
Station Type Date Time Source
KENV METAR 2019/04/25 01:56 UTC NOAA

KENV 250156Z AUTO 08006KT 10SM SCT090 SCT100 18/10 A3004 RMK AO2 LTG DSNT NE RAB04E31 SLP156 P0000 T01830100


Station Type Date Time Source
KENV Decoded METAR 2019/04/25 01:56 UTC NOAA

Wendover / Air Force Auxillary Field, UT, United States (KENV) 40-44N 114-02W 1292M
Apr 24, 2019 - 09:56 PM EDT / 2019.04.25 0156 UTC
Wind: from the E (080 degrees) at 7 MPH (6 KT):0
Visibility: 10 mile(s):0
Sky conditions: partly cloudy
Weather: Lightning observed
Precipitation last hour: A trace
Temperature: 64.9 F (18.3 C)
Dew Point: 50.0 F (10.0 C)
Relative Humidity: 58%
Pressure (altimeter): 30.04 in. Hg (1017 hPa)
ob: KENV 250156Z AUTO 08006KT 10SM SCT090 SCT100 18/10 A3004 RMK AO2 LTG DSNT NE RAB04E31 SLP156 P0000 T01830100
cycle: 2

Station Type Date Time Source
KENV TAF 2019/04/24 23:39 UTC NOAA

TAF
AMD KENV 242236Z 2423/2518 12008KT P6SM -TSRA BKN070CB BKN100
FM250000 34005KT P6SM SCT070 BKN100
FM251300 13005KT P6SM SCT070 BKN100

Example: see airport list